sensor_id;sensor_type;location;lat;lon;timestamp;pressure;altitude;pressure_sealevel;temperature;humidity
23417;BME280;11881;42.432;25.632;2022-09-20T00:00:44;99033.19;;;15.66;71.25
23417;BME280;11881;42.432;25.632;2022-09-20T00:03:11;99026.03;;;15.82;68.62
23417;BME280;11881;42.432;25.632;2022-09-20T00:05:40;99021.75;;;15.95;68.90
23417;BME280;11881;42.432;25.632;2022-09-20T00:08:07;99022.09;;;15.92;69.18
23417;BME280;11881;42.432;25.632;2022-09-20T00:10:35;99030.81;;;15.94;70.86
23417;BME280;11881;42.432;25.632;2022-09-20T00:13:04;99024.31;;;15.89;71.64
23417;BME280;11881;42.432;25.632;2022-09-20T00:15:29;99023.28;;;15.90;73.17
23417;BME280;11881;42.432;25.632;2022-09-20T00:17:56;99024.44;;;15.95;72.69
23417;BME280;11881;42.432;25.632;2022-09-20T00:20:22;99020.50;;;15.83;73.55
23417;BME280;11881;42.432;25.632;2022-09-20T00:22:47;99009.25;;;15.80;72.97
23417;BME280;11881;42.432;25.632;2022-09-20T00:25:18;99021.31;;;15.84;73.46
23417;BME280;11881;42.432;25.632;2022-09-20T00:27:44;99021.63;;;15.89;74.16
23417;BME280;11881;42.432;25.632;2022-09-20T00:30:11;99025.69;;;15.85;75.08
23417;BME280;11881;42.432;25.632;2022-09-20T00:32:36;99021.19;;;16.00;73.94
23417;BME280;11881;42.432;25.632;2022-09-20T00:35:02;99028.34;;;15.85;74.88
23417;BME280;11881;42.432;25.632;2022-09-20T00:37:36;99024.41;;;15.73;75.27
23417;BME280;11881;42.432;25.632;2022-09-20T00:40:03;99029.19;;;15.85;72.90
23417;BME280;11881;42.432;25.632;2022-09-20T00:42:29;99021.47;;;15.82;73.80
23417;BME280;11881;42.432;25.632;2022-09-20T00:45:00;99028.84;;;15.65;75.71
23417;BME280;11881;42.432;25.632;2022-09-20T00:50:29;99016.50;;;15.48;77.36
23417;BME280;11881;42.432;25.632;2022-09-20T00:53:07;99012.38;;;15.60;74.94
23417;BME280;11881;42.432;25.632;2022-09-20T00:55:36;99009.28;;;15.40;78.56
23417;BME280;11881;42.432;25.632;2022-09-20T00:58:03;99004.50;;;15.28;78.97
23417;BME280;11881;42.432;25.632;2022-09-20T01:00:30;99006.88;;;15.23;79.79
23417;BME280;11881;42.432;25.632;2022-09-20T01:02:58;99006.53;;;15.26;79.55
23417;BME280;11881;42.432;25.632;2022-09-20T01:05:25;99008.06;;;15.20;81.32
23417;BME280;11881;42.432;25.632;2022-09-20T01:07:51;99003.72;;;15.19;80.33
23417;BME280;11881;42.432;25.632;2022-09-20T01:10:18;99005.53;;;15.27;80.69
23417;BME280;11881;42.432;25.632;2022-09-20T01:12:44;99000.19;;;15.18;79.75
23417;BME280;11881;42.432;25.632;2022-09-20T01:15:11;99004.16;;;15.31;79.87
23417;BME280;11881;42.432;25.632;2022-09-20T01:17:42;98999.75;;;15.38;78.16
23417;BME280;11881;42.432;25.632;2022-09-20T01:20:16;99003.59;;;15.43;78.03
23417;BME280;11881;42.432;25.632;2022-09-20T01:28:13;99011.47;;;15.45;79.05
23417;BME280;11881;42.432;25.632;2022-09-20T01:30:44;99008.22;;;15.18;80.84
23417;BME280;11881;42.432;25.632;2022-09-20T01:33:43;99007.94;;;15.13;80.30
23417;BME280;11881;42.432;25.632;2022-09-20T01:36:17;99015.44;;;15.26;80.07
23417;BME280;11881;42.432;25.632;2022-09-20T01:38:50;99019.16;;;15.17;80.20
23417;BME280;11881;42.432;25.632;2022-09-20T01:41:43;99018.69;;;15.05;81.29
23417;BME280;11881;42.432;25.632;2022-09-20T02:14:31;99021.44;;;14.89;83.48
23417;BME280;11881;42.432;25.632;2022-09-20T02:17:11;99023.69;;;15.16;82.53
23417;BME280;11881;42.432;25.632;2022-09-20T02:19:52;99031.81;;;14.92;82.96
23417;BME280;11881;42.432;25.632;2022-09-20T02:22:40;99023.19;;;14.57;86.30
23417;BME280;11881;42.432;25.632;2022-09-20T02:25:35;99029.84;;;14.86;84.07
23417;BME280;11881;42.432;25.632;2022-09-20T02:39:45;99026.53;;;14.59;89.21
23417;BME280;11881;42.432;25.632;2022-09-20T02:42:57;99029.38;;;14.66;90.11
23417;BME280;11881;42.432;25.632;2022-09-20T02:48:28;99027.88;;;14.63;90.59
23417;BME280;11881;42.432;25.632;2022-09-20T03:01:31;99032.75;;;14.03;92.86
23417;BME280;11881;42.432;25.632;2022-09-20T03:04:13;99033.91;;;14.08;92.73
23417;BME280;11881;42.432;25.632;2022-09-20T03:07:00;99031.91;;;14.02;92.75
23417;BME280;11881;42.432;25.632;2022-09-20T03:09:42;99041.47;;;14.13;92.31
23417;BME280;11881;42.432;25.632;2022-09-20T03:28:49;99049.16;;;14.24;91.61
23417;BME280;11881;42.432;25.632;2022-09-20T03:37:14;99061.06;;;14.05;92.21
23417;BME280;11881;42.432;25.632;2022-09-20T03:42:23;99058.66;;;13.78;96.43
23417;BME280;11881;42.432;25.632;2022-09-20T03:47:35;99069.38;;;13.78;95.98
23417;BME280;11881;42.432;25.632;2022-09-20T03:50:19;99067.41;;;13.88;94.90
23417;BME280;11881;42.432;25.632;2022-09-20T04:09:37;99075.25;;;13.90;95.49
23417;BME280;11881;42.432;25.632;2022-09-20T04:12:13;99084.63;;;13.85;94.82
23417;BME280;11881;42.432;25.632;2022-09-20T04:14:56;99081.09;;;13.69;96.81
23417;BME280;11881;42.432;25.632;2022-09-20T04:17:37;99089.97;;;13.69;96.01
23417;BME280;11881;42.432;25.632;2022-09-20T04:20:22;99090.50;;;13.89;95.28
23417;BME280;11881;42.432;25.632;2022-09-20T04:22:50;99099.72;;;13.95;94.58
23417;BME280;11881;42.432;25.632;2022-09-20T04:25:22;99099.53;;;13.96;94.24
23417;BME280;11881;42.432;25.632;2022-09-20T04:28:03;99101.59;;;14.27;93.15
23417;BME280;11881;42.432;25.632;2022-09-20T04:30:35;99100.22;;;14.06;94.42
23417;BME280;11881;42.432;25.632;2022-09-20T04:33:19;99097.91;;;14.11;94.21
23417;BME280;11881;42.432;25.632;2022-09-20T04:47:56;99113.84;;;14.54;90.36
23417;BME280;11881;42.432;25.632;2022-09-20T04:58:47;99110.59;;;14.99;85.54
23417;BME280;11881;42.432;25.632;2022-09-20T05:17:35;99121.97;;;15.57;80.32
23417;BME280;11881;42.432;25.632;2022-09-20T05:20:44;99115.59;;;15.66;79.98
23417;BME280;11881;42.432;25.632;2022-09-20T05:28:43;99117.88;;;16.08;76.97
23417;BME280;11881;42.432;25.632;2022-09-20T05:31:16;99128.81;;;16.07;77.36
23417;BME280;11881;42.432;25.632;2022-09-20T05:36:42;99136.03;;;16.29;74.88
23417;BME280;11881;42.432;25.632;2022-09-20T05:39:43;99140.44;;;16.45;73.71
23417;BME280;11881;42.432;25.632;2022-09-20T05:42:31;99134.63;;;16.41;74.24
23417;BME280;11881;42.432;25.632;2022-09-20T06:04:54;99123.91;;;17.68;66.59
23417;BME280;11881;42.432;25.632;2022-09-20T06:15:41;99124.72;;;17.68;67.48
23417;BME280;11881;42.432;25.632;2022-09-20T06:23:34;99119.88;;;18.29;60.03
23417;BME280;11881;42.432;25.632;2022-09-20T06:26:15;99127.75;;;18.52;57.01
23417;BME280;11881;42.432;25.632;2022-09-20T06:28:46;99120.75;;;18.58;57.47
23417;BME280;11881;42.432;25.632;2022-09-20T06:31:13;99113.50;;;18.58;56.08
23417;BME280;11881;42.432;25.632;2022-09-20T06:33:43;99115.72;;;18.55;55.46
23417;BME280;11881;42.432;25.632;2022-09-20T06:36:19;99119.22;;;18.70;54.47
23417;BME280;11881;42.432;25.632;2022-09-20T06:42:23;99132.97;;;18.75;55.67
23417;BME280;11881;42.432;25.632;2022-09-20T06:44:50;99136.38;;;18.63;55.85
23417;BME280;11881;42.432;25.632;2022-09-20T06:47:16;99127.31;;;18.70;55.33
23417;BME280;11881;42.432;25.632;2022-09-20T06:49:43;99130.13;;;18.62;54.93
23417;BME280;11881;42.432;25.632;2022-09-20T06:52:15;99130.41;;;18.46;55.09
23417;BME280;11881;42.432;25.632;2022-09-20T06:54:52;99132.84;;;18.41;55.29
23417;BME280;11881;42.432;25.632;2022-09-20T06:57:23;99143.41;;;18.42;56.71
23417;BME280;11881;42.432;25.632;2022-09-20T06:59:52;99150.38;;;18.51;56.66
23417;BME280;11881;42.432;25.632;2022-09-20T07:02:17;99143.38;;;18.35;56.29
23417;BME280;11881;42.432;25.632;2022-09-20T07:04:43;99155.69;;;18.23;56.74
23417;BME280;11881;42.432;25.632;2022-09-20T07:07:14;99164.00;;;18.07;58.61
23417;BME280;11881;42.432;25.632;2022-09-20T07:09:40;99166.16;;;17.97;59.11
23417;BME280;11881;42.432;25.632;2022-09-20T07:12:06;99166.28;;;17.89;57.44
23417;BME280;11881;42.432;25.632;2022-09-20T07:14:37;99163.84;;;17.94;57.83
23417;BME280;11881;42.432;25.632;2022-09-20T07:17:02;99164.75;;;18.16;56.92
23417;BME280;11881;42.432;25.632;2022-09-20T07:19:28;99166.66;;;18.43;54.62
23417;BME280;11881;42.432;25.632;2022-09-20T07:21:53;99165.31;;;18.54;55.47
23417;BME280;11881;42.432;25.632;2022-09-20T07:24:19;99167.72;;;18.64;55.05
23417;BME280;11881;42.432;25.632;2022-09-20T07:26:56;99165.88;;;18.85;51.88
23417;BME280;11881;42.432;25.632;2022-09-20T07:29:22;99168.97;;;19.10;53.63
23417;BME280;11881;42.432;25.632;2022-09-20T07:31:47;99163.25;;;19.27;54.76
23417;BME280;11881;42.432;25.632;2022-09-20T07:34:15;99171.84;;;18.38;54.74
23417;BME280;11881;42.432;25.632;2022-09-20T07:36:41;99169.47;;;18.50;55.62
23417;BME280;11881;42.432;25.632;2022-09-20T07:39:07;99169.78;;;18.61;53.26
23417;BME280;11881;42.432;25.632;2022-09-20T07:41:32;99164.78;;;18.80;53.77
23417;BME280;11881;42.432;25.632;2022-09-20T07:43:57;99172.78;;;19.23;52.93
23417;BME280;11881;42.432;25.632;2022-09-20T07:46:43;99170.06;;;19.51;53.34
23417;BME280;11881;42.432;25.632;2022-09-20T07:49:12;99166.78;;;19.55;53.76
23417;BME280;11881;42.432;25.632;2022-09-20T07:51:37;99163.84;;;19.57;49.86
23417;BME280;11881;42.432;25.632;2022-09-20T07:54:03;99168.53;;;19.70;50.45
23417;BME280;11881;42.432;25.632;2022-09-20T07:56:28;99171.91;;;19.44;50.45
23417;BME280;11881;42.432;25.632;2022-09-20T07:58:53;99160.69;;;19.19;48.47
23417;BME280;11881;42.432;25.632;2022-09-20T08:01:19;99166.47;;;19.37;46.92
23417;BME280;11881;42.432;25.632;2022-09-20T08:03:47;99162.16;;;19.14;46.64
23417;BME280;11881;42.432;25.632;2022-09-20T08:06:12;99166.94;;;19.19;47.40
23417;BME280;11881;42.432;25.632;2022-09-20T08:08:43;99168.53;;;19.41;48.82
23417;BME280;11881;42.432;25.632;2022-09-20T08:11:13;99169.09;;;19.58;46.27
23417;BME280;11881;42.432;25.632;2022-09-20T08:13:45;99172.16;;;19.83;45.64
23417;BME280;11881;42.432;25.632;2022-09-20T08:16:12;99165.28;;;19.87;46.96
23417;BME280;11881;42.432;25.632;2022-09-20T08:18:38;99161.38;;;19.97;46.05
23417;BME280;11881;42.432;25.632;2022-09-20T08:21:08;99151.41;;;20.04;46.92
23417;BME280;11881;42.432;25.632;2022-09-20T08:23:38;99154.19;;;20.30;45.41
23417;BME280;11881;42.432;25.632;2022-09-20T08:26:07;99152.94;;;20.39;46.68
23417;BME280;11881;42.432;25.632;2022-09-20T08:28:33;99153.78;;;20.33;45.90
23417;BME280;11881;42.432;25.632;2022-09-20T08:31:07;99147.41;;;20.54;45.97
23417;BME280;11881;42.432;25.632;2022-09-20T08:33:34;99146.56;;;20.54;46.14
23417;BME280;11881;42.432;25.632;2022-09-20T08:36:06;99146.56;;;20.47;45.29
23417;BME280;11881;42.432;25.632;2022-09-20T08:38:33;99145.53;;;20.61;45.26
23417;BME280;11881;42.432;25.632;2022-09-20T08:43:58;99143.03;;;21.06;43.99
23417;BME280;11881;42.432;25.632;2022-09-20T08:46:28;99142.19;;;21.12;43.64
23417;BME280;11881;42.432;25.632;2022-09-20T08:48:56;99141.34;;;21.18;43.61
23417;BME280;11881;42.432;25.632;2022-09-20T08:51:32;99137.81;;;21.31;40.19
23417;BME280;11881;42.432;25.632;2022-09-20T08:53:59;99134.88;;;21.26;43.57
23417;BME280;11881;42.432;25.632;2022-09-20T08:56:30;99135.72;;;21.33;42.58
23417;BME280;11881;42.432;25.632;2022-09-20T08:58:58;99132.53;;;21.49;40.25
23417;BME280;11881;42.432;25.632;2022-09-20T09:01:25;99136.06;;;21.57;39.32
23417;BME280;11881;42.432;25.632;2022-09-20T09:03:57;99125.88;;;21.52;40.26
23417;BME280;11881;42.432;25.632;2022-09-20T09:06:26;99126.97;;;21.31;42.44
23417;BME280;11881;42.432;25.632;2022-09-20T09:08:55;99121.31;;;21.39;44.60
23417;BME280;11881;42.432;25.632;2022-09-20T09:11:22;99113.53;;;21.56;43.22
23417;BME280;11881;42.432;25.632;2022-09-20T09:16:21;99104.06;;;21.78;43.23
23417;BME280;11881;42.432;25.632;2022-09-20T09:18:47;99100.22;;;21.99;42.05
23417;BME280;11881;42.432;25.632;2022-09-20T09:24:06;99106.69;;;21.98;41.30
23417;BME280;11881;42.432;25.632;2022-09-20T09:26:41;99107.72;;;21.97;39.26
23417;BME280;11881;42.432;25.632;2022-09-20T09:29:18;99100.63;;;21.96;42.35
23417;BME280;11881;42.432;25.632;2022-09-20T09:31:46;99109.50;;;22.23;41.73
23417;BME280;11881;42.432;25.632;2022-09-20T09:34:26;99102.16;;;21.86;42.93
23417;BME280;11881;42.432;25.632;2022-09-20T09:36:52;99097.31;;;21.94;42.87
23417;BME280;11881;42.432;25.632;2022-09-20T09:39:28;99098.75;;;22.10;43.08
23417;BME280;11881;42.432;25.632;2022-09-20T09:41:55;99101.59;;;22.22;42.40
23417;BME280;11881;42.432;25.632;2022-09-20T09:44:29;99105.78;;;22.18;42.40
23417;BME280;11881;42.432;25.632;2022-09-20T09:46:56;99107.31;;;22.00;42.73
23417;BME280;11881;42.432;25.632;2022-09-20T09:54:20;99098.06;;;22.46;42.62
23417;BME280;11881;42.432;25.632;2022-09-20T09:59:54;99091.53;;;22.54;40.83
23417;BME280;11881;42.432;25.632;2022-09-20T10:07:48;99082.22;;;22.43;41.91
23417;BME280;11881;42.432;25.632;2022-09-20T10:13:21;99088.09;;;22.02;44.04
23417;BME280;11881;42.432;25.632;2022-09-20T10:16:32;99084.06;;;22.18;41.37
23417;BME280;11881;42.432;25.632;2022-09-20T10:24:45;99085.41;;;21.95;42.71
23417;BME280;11881;42.432;25.632;2022-09-20T10:27:26;99076.88;;;22.30;41.77
23417;BME280;11881;42.432;25.632;2022-09-20T10:30:18;99079.59;;;22.62;41.64
23417;BME280;11881;42.432;25.632;2022-09-20T10:36:00;99074.16;;;22.62;43.10
23417;BME280;11881;42.432;25.632;2022-09-20T10:38:34;99075.19;;;22.61;40.82
23417;BME280;11881;42.432;25.632;2022-09-20T10:49:26;99068.13;;;22.78;39.99
23417;BME280;11881;42.432;25.632;2022-09-20T10:54:49;99071.16;;;23.13;41.02
23417;BME280;11881;42.432;25.632;2022-09-20T11:00:40;99047.59;;;22.64;42.55
23417;BME280;11881;42.432;25.632;2022-09-20T11:08:35;99042.72;;;21.84;42.59
23417;BME280;11881;42.432;25.632;2022-09-20T11:16:26;99036.66;;;22.20;41.84
23417;BME280;11881;42.432;25.632;2022-09-20T11:24:42;99034.19;;;21.81;44.43
23417;BME280;11881;42.432;25.632;2022-09-20T11:27:15;99030.75;;;21.60;41.38
23417;BME280;11881;42.432;25.632;2022-09-20T11:29:58;99028.84;;;21.61;44.44
23417;BME280;11881;42.432;25.632;2022-09-20T11:32:31;99027.84;;;21.55;43.43
23417;BME280;11881;42.432;25.632;2022-09-20T11:35:03;99028.00;;;21.09;44.48
23417;BME280;11881;42.432;25.632;2022-09-20T11:37:38;99029.66;;;21.10;44.72
23417;BME280;11881;42.432;25.632;2022-09-20T11:40:20;99025.28;;;21.09;43.76
23417;BME280;11881;42.432;25.632;2022-09-20T11:42:48;99017.69;;;21.44;42.95
23417;BME280;11881;42.432;25.632;2022-09-20T11:45:17;99023.25;;;21.56;43.90
23417;BME280;11881;42.432;25.632;2022-09-20T11:47:53;99015.75;;;21.51;45.77
23417;BME280;11881;42.432;25.632;2022-09-20T11:56:29;99019.75;;;21.48;47.23
23417;BME280;11881;42.432;25.632;2022-09-20T11:59:04;99014.84;;;21.70;45.27
23417;BME280;11881;42.432;25.632;2022-09-20T12:01:33;99003.81;;;21.97;44.29
23417;BME280;11881;42.432;25.632;2022-09-20T12:04:01;99000.16;;;21.85;43.00
23417;BME280;11881;42.432;25.632;2022-09-20T12:06:33;99003.31;;;21.82;44.79
23417;BME280;11881;42.432;25.632;2022-09-20T12:09:02;99002.72;;;21.73;46.16
23417;BME280;11881;42.432;25.632;2022-09-20T12:11:33;99002.22;;;21.51;47.71
23417;BME280;11881;42.432;25.632;2022-09-20T12:14:16;98997.09;;;21.36;46.38
23417;BME280;11881;42.432;25.632;2022-09-20T12:16:45;98997.94;;;21.30;48.73
23417;BME280;11881;42.432;25.632;2022-09-20T12:24:23;99000.34;;;20.93;47.94
23417;BME280;11881;42.432;25.632;2022-09-20T12:26:51;99003.06;;;20.93;48.76
23417;BME280;11881;42.432;25.632;2022-09-20T12:31:53;99000.16;;;20.68;49.75
23417;BME280;11881;42.432;25.632;2022-09-20T12:47:00;98996.19;;;20.84;51.56
23417;BME280;11881;42.432;25.632;2022-09-20T12:58:05;98994.19;;;20.53;50.96
23417;BME280;11881;42.432;25.632;2022-09-20T13:05:47;98985.84;;;20.55;51.17
23417;BME280;11881;42.432;25.632;2022-09-20T13:08:28;98987.09;;;20.45;53.64
23417;BME280;11881;42.432;25.632;2022-09-20T13:11:16;98991.25;;;20.41;51.24
23417;BME280;11881;42.432;25.632;2022-09-20T13:19:14;98995.63;;;20.49;50.78
23417;BME280;11881;42.432;25.632;2022-09-20T13:21:49;98984.19;;;20.54;49.40
23417;BME280;11881;42.432;25.632;2022-09-20T13:24:18;98987.06;;;20.52;51.08
23417;BME280;11881;42.432;25.632;2022-09-20T13:26:46;98990.81;;;20.64;49.70
23417;BME280;11881;42.432;25.632;2022-09-20T13:29:25;98988.47;;;20.81;49.83
23417;BME280;11881;42.432;25.632;2022-09-20T13:31:53;98984.56;;;20.70;50.04
23417;BME280;11881;42.432;25.632;2022-09-20T13:34:24;99001.22;;;20.67;50.19
23417;BME280;11881;42.432;25.632;2022-09-20T13:36:53;98996.44;;;20.63;50.09
23417;BME280;11881;42.432;25.632;2022-09-20T13:39:37;98997.28;;;20.50;47.78
23417;BME280;11881;42.432;25.632;2022-09-20T13:42:11;99001.63;;;20.38;48.06
23417;BME280;11881;42.432;25.632;2022-09-20T13:44:41;98991.63;;;20.45;48.86
23417;BME280;11881;42.432;25.632;2022-09-20T13:47:25;99002.25;;;20.33;46.74
23417;BME280;11881;42.432;25.632;2022-09-20T13:49:51;99007.28;;;20.30;48.70
23417;BME280;11881;42.432;25.632;2022-09-20T13:52:26;99003.31;;;20.32;46.56
23417;BME280;11881;42.432;25.632;2022-09-20T13:54:52;99007.28;;;20.30;46.93
23417;BME280;11881;42.432;25.632;2022-09-20T13:57:22;99004.13;;;20.39;47.26
23417;BME280;11881;42.432;25.632;2022-09-20T13:59:50;98999.34;;;20.28;47.42
23417;BME280;11881;42.432;25.632;2022-09-20T14:02:29;99000.16;;;20.29;50.20
23417;BME280;11881;42.432;25.632;2022-09-20T14:04:58;99000.59;;;20.12;49.78
23417;BME280;11881;42.432;25.632;2022-09-20T14:07:26;99007.84;;;20.12;49.17
23417;BME280;11881;42.432;25.632;2022-09-20T14:09:53;99008.91;;;20.11;48.74
23417;BME280;11881;42.432;25.632;2022-09-20T14:12:20;99012.25;;;20.13;47.66
23417;BME280;11881;42.432;25.632;2022-09-20T14:14:48;99003.50;;;20.11;47.18
23417;BME280;11881;42.432;25.632;2022-09-20T14:17:16;99006.19;;;20.04;48.31
23417;BME280;11881;42.432;25.632;2022-09-20T14:19:47;99000.78;;;19.91;47.06
23417;BME280;11881;42.432;25.632;2022-09-20T14:22:25;99014.91;;;19.93;48.35
23417;BME280;11881;42.432;25.632;2022-09-20T14:25:00;98999.94;;;19.90;47.84
23417;BME280;11881;42.432;25.632;2022-09-20T14:27:26;99012.81;;;19.88;47.00
23417;BME280;11881;42.432;25.632;2022-09-20T14:29:53;99010.31;;;19.80;47.48
23417;BME280;11881;42.432;25.632;2022-09-20T14:34:47;99008.88;;;19.78;47.80
23417;BME280;11881;42.432;25.632;2022-09-20T14:40:23;99014.69;;;19.81;48.19
23417;BME280;11881;42.432;25.632;2022-09-20T14:42:50;99012.59;;;19.77;50.56
23417;BME280;11881;42.432;25.632;2022-09-20T14:45:35;99015.28;;;19.70;47.92
23417;BME280;11881;42.432;25.632;2022-09-20T14:50:41;99026.75;;;19.72;49.41
23417;BME280;11881;42.432;25.632;2022-09-20T14:56:06;99030.66;;;19.63;48.11
23417;BME280;11881;42.432;25.632;2022-09-20T15:01:30;99027.03;;;19.43;47.46
23417;BME280;11881;42.432;25.632;2022-09-20T15:03:57;99029.94;;;19.48;48.80
23417;BME280;11881;42.432;25.632;2022-09-20T15:06:23;99027.66;;;19.45;49.20
23417;BME280;11881;42.432;25.632;2022-09-20T15:37:48;99033.69;;;18.71;50.20
23417;BME280;11881;42.432;25.632;2022-09-20T15:40:13;99035.09;;;18.67;50.32
23417;BME280;11881;42.432;25.632;2022-09-20T15:42:39;99034.78;;;18.55;50.05
23417;BME280;11881;42.432;25.632;2022-09-20T15:45:09;99038.16;;;18.57;50.90
23417;BME280;11881;42.432;25.632;2022-09-20T15:47:36;99042.41;;;18.45;51.17
23417;BME280;11881;42.432;25.632;2022-09-20T15:50:07;99046.53;;;18.41;50.75
23417;BME280;11881;42.432;25.632;2022-09-20T15:52:37;99046.97;;;18.44;51.13
23417;BME280;11881;42.432;25.632;2022-09-20T15:55:07;99042.38;;;18.38;51.76
23417;BME280;11881;42.432;25.632;2022-09-20T15:57:33;99044.59;;;18.34;50.01
23417;BME280;11881;42.432;25.632;2022-09-20T15:59:59;99049.16;;;18.34;50.74
23417;BME280;11881;42.432;25.632;2022-09-20T16:02:25;99052.84;;;18.26;51.42
23417;BME280;11881;42.432;25.632;2022-09-20T16:04:51;99051.19;;;18.32;50.93
23417;BME280;11881;42.432;25.632;2022-09-20T16:07:19;99051.50;;;18.16;50.48
23417;BME280;11881;42.432;25.632;2022-09-20T16:09:53;99051.28;;;18.17;50.52
23417;BME280;11881;42.432;25.632;2022-09-20T16:12:19;99058.28;;;18.12;51.59
23417;BME280;11881;42.432;25.632;2022-09-20T16:14:45;99057.97;;;18.00;50.95
23417;BME280;11881;42.432;25.632;2022-09-20T16:17:10;99064.81;;;18.02;51.87
23417;BME280;11881;42.432;25.632;2022-09-20T16:19:36;99066.84;;;18.15;56.55
23417;BME280;11881;42.432;25.632;2022-09-20T16:22:03;99071.16;;;18.10;50.89
23417;BME280;11881;42.432;25.632;2022-09-20T16:24:30;99073.91;;;18.16;52.95
23417;BME280;11881;42.432;25.632;2022-09-20T16:26:58;99082.09;;;18.08;50.94
23417;BME280;11881;42.432;25.632;2022-09-20T16:29:25;99089.25;;;18.16;53.33
23417;BME280;11881;42.432;25.632;2022-09-20T16:31:52;99086.03;;;18.27;51.42
23417;BME280;11881;42.432;25.632;2022-09-20T16:36:48;99084.84;;;18.15;54.10
23417;BME280;11881;42.432;25.632;2022-09-20T16:43:18;99105.41;;;17.79;55.37
23417;BME280;11881;42.432;25.632;2022-09-20T16:45:59;99106.28;;;17.80;55.78
23417;BME280;11881;42.432;25.632;2022-09-20T16:48:26;99110.06;;;17.71;55.66
23417;BME280;11881;42.432;25.632;2022-09-20T16:50:56;99104.41;;;17.80;54.88
23417;BME280;11881;42.432;25.632;2022-09-20T16:53:26;99110.91;;;17.71;54.55
23417;BME280;11881;42.432;25.632;2022-09-20T16:55:51;99110.81;;;17.50;54.89
23417;BME280;11881;42.432;25.632;2022-09-20T16:58:28;99122.34;;;17.44;55.87
23417;BME280;11881;42.432;25.632;2022-09-20T17:01:02;99115.47;;;17.56;55.17
23417;BME280;11881;42.432;25.632;2022-09-20T17:03:27;99119.56;;;17.52;54.09
23417;BME280;11881;42.432;25.632;2022-09-20T17:06:02;99122.00;;;17.47;54.88
23417;BME280;11881;42.432;25.632;2022-09-20T17:08:29;99127.44;;;17.39;54.15
23417;BME280;11881;42.432;25.632;2022-09-20T17:10:58;99123.84;;;17.46;53.87
23417;BME280;11881;42.432;25.632;2022-09-20T17:13:25;99132.41;;;17.35;54.20
23417;BME280;11881;42.432;25.632;2022-09-20T17:16:01;99132.59;;;17.34;53.49
23417;BME280;11881;42.432;25.632;2022-09-20T17:18:27;99131.94;;;17.17;54.73
23417;BME280;11881;42.432;25.632;2022-09-20T17:20:52;99135.81;;;17.14;55.55
23417;BME280;11881;42.432;25.632;2022-09-20T17:23:18;99143.16;;;17.20;54.43
23417;BME280;11881;42.432;25.632;2022-09-20T17:25:43;99142.31;;;17.20;54.23
23417;BME280;11881;42.432;25.632;2022-09-20T17:28:10;99141.22;;;17.29;54.72
23417;BME280;11881;42.432;25.632;2022-09-20T17:30:35;99147.81;;;17.41;54.58
23417;BME280;11881;42.432;25.632;2022-09-20T17:33:01;99145.19;;;17.33;54.62
23417;BME280;11881;42.432;25.632;2022-09-20T17:35:26;99145.28;;;17.25;55.68
23417;BME280;11881;42.432;25.632;2022-09-20T17:37:53;99146.22;;;17.17;57.01
23417;BME280;11881;42.432;25.632;2022-09-20T17:40:19;99150.59;;;17.18;57.11
23417;BME280;11881;42.432;25.632;2022-09-20T17:42:44;99149.75;;;17.18;56.20
23417;BME280;11881;42.432;25.632;2022-09-20T17:48:53;99160.34;;;17.19;54.86
23417;BME280;11881;42.432;25.632;2022-09-20T17:51:21;99175.69;;;17.34;54.57
23417;BME280;11881;42.432;25.632;2022-09-20T17:53:47;99170.66;;;17.31;54.70
23417;BME280;11881;42.432;25.632;2022-09-20T17:56:13;99184.47;;;17.13;56.06
23417;BME280;11881;42.432;25.632;2022-09-20T17:58:39;99177.50;;;17.18;57.49
23417;BME280;11881;42.432;25.632;2022-09-20T18:01:16;99179.91;;;17.13;57.51
23417;BME280;11881;42.432;25.632;2022-09-20T18:03:46;99184.47;;;17.13;56.92
23417;BME280;11881;42.432;25.632;2022-09-20T18:06:15;99178.53;;;17.17;57.32
23417;BME280;11881;42.432;25.632;2022-09-20T18:08:45;99190.78;;;17.05;56.16
23417;BME280;11881;42.432;25.632;2022-09-20T18:11:11;99184.66;;;17.11;57.38
23417;BME280;11881;42.432;25.632;2022-09-20T18:13:36;99188.88;;;16.91;57.62
23417;BME280;11881;42.432;25.632;2022-09-20T18:16:02;99186.75;;;17.01;56.34
23417;BME280;11881;42.432;25.632;2022-09-20T18:18:30;99196.31;;;17.03;55.80
23417;BME280;11881;42.432;25.632;2022-09-20T18:20:55;99202.47;;;17.12;56.32
23417;BME280;11881;42.432;25.632;2022-09-20T18:23:21;99206.53;;;17.08;55.90
23417;BME280;11881;42.432;25.632;2022-09-20T18:25:46;99200.13;;;17.09;54.92
23417;BME280;11881;42.432;25.632;2022-09-20T18:28:30;99203.13;;;17.14;54.95
23417;BME280;11881;42.432;25.632;2022-09-20T18:31:00;99216.22;;;17.17;57.42
23417;BME280;11881;42.432;25.632;2022-09-20T18:33:26;99215.56;;;17.15;57.48
23417;BME280;11881;42.432;25.632;2022-09-20T18:35:52;99217.94;;;17.10;57.21
23417;BME280;11881;42.432;25.632;2022-09-20T18:38:22;99215.09;;;17.12;54.98
23417;BME280;11881;42.432;25.632;2022-09-20T18:40:59;99218.19;;;17.23;55.81
23417;BME280;11881;42.432;25.632;2022-09-20T18:43:26;99215.66;;;17.22;54.36
23417;BME280;11881;42.432;25.632;2022-09-20T18:45:52;99218.34;;;17.22;53.60
23417;BME280;11881;42.432;25.632;2022-09-20T18:48:19;99220.78;;;17.32;55.84
23417;BME280;11881;42.432;25.632;2022-09-20T18:54:55;99217.06;;;17.33;55.69
23417;BME280;11881;42.432;25.632;2022-09-20T18:57:22;99228.03;;;17.31;55.88
23417;BME280;11881;42.432;25.632;2022-09-20T18:59:48;99219.75;;;17.18;56.24
23417;BME280;11881;42.432;25.632;2022-09-20T19:02:28;99215.56;;;17.15;55.77
23417;BME280;11881;42.432;25.632;2022-09-20T19:05:16;99215.94;;;17.12;56.81
23417;BME280;11881;42.432;25.632;2022-09-20T19:10:42;99230.03;;;17.14;57.04